Time;durP1;ratioP1;P1;durP2;ratioP2;P2;SDS_P1;SDS_P2;PMS_P1;PMS_P2;Temp;Humidity;BMP_temperature;BMP_pressure;BME280_temperature;BME280_humidity;BME280_pressure;Samples;Min_cycle;Max_cycle;Signal;HPM_P1;HPM_P2
2022/11/19 00:00:24;;;;;;;25.10;10.40;;;;;;;-3.38;100.00;98791.48;103973;1337;22048;-36
2022/11/19 00:02:53;;;;;;;21.90;9.60;;;;;;;-3.39;100.00;98789.09;103975;1341;22966;-33
2022/11/19 00:05:19;;;;;;;25.10;11.10;;;;;;;-3.36;100.00;98788.66;103953;1341;22169;-36
2022/11/19 00:07:45;;;;;;;20.90;9.60;;;;;;;-3.34;100.00;98790.25;103985;1341;22123;-37
2022/11/19 00:10:10;;;;;;;22.00;8.70;;;;;;;-3.31;100.00;98792.98;103725;1341;22215;-32
2022/11/19 00:15:05;;;;;;;20.90;10.40;;;;;;;-3.27;100.00;98791.45;103905;1334;24313;-33
2022/11/19 00:17:31;;;;;;;22.70;11.60;;;;;;;-3.30;100.00;98790.33;104010;1336;22590;-33
2022/11/19 00:19:56;;;;;;;28.90;12.90;;;;;;;-3.32;100.00;98792.77;103733;1319;22208;-32
2022/11/19 00:22:22;;;;;;;29.70;10.80;;;;;;;-3.36;100.00;98795.83;103970;1341;22216;-32
2022/11/19 00:24:48;;;;;;;18.40;8.50;;;;;;;-3.34;100.00;98798.01;103545;1337;22458;-31
2022/11/19 00:27:13;;;;;;;16.50;8.00;;;;;;;-3.31;100.00;98798.26;103490;1327;22523;-36
2022/11/19 00:29:39;;;;;;;16.80;8.10;;;;;;;-3.35;100.00;98798.77;103997;1332;22535;-36
2022/11/19 00:32:04;;;;;;;18.30;7.30;;;;;;;-3.31;100.00;98794.96;103954;1333;22050;-32
2022/11/19 00:34:30;;;;;;;30.30;10.50;;;;;;;-3.29;100.00;98799.16;103887;1334;22068;-32
2022/11/19 00:36:55;;;;;;;11.90;5.40;;;;;;;-3.28;100.00;98801.23;103998;1333;22103;-33
2022/11/19 00:39:21;;;;;;;6.20;3.60;;;;;;;-3.28;100.00;98807.70;103962;1340;22241;-36
2022/11/19 00:41:47;;;;;;;14.70;8.60;;;;;;;-3.32;100.00;98812.51;103914;1336;22060;-36
2022/11/19 00:44:12;;;;;;;19.10;10.50;;;;;;;-3.34;100.00;98818.95;103933;1341;22194;-36
2022/11/19 00:46:38;;;;;;;14.20;7.50;;;;;;;-3.34;100.00;98822.64;103658;1341;22170;-32
2022/11/19 00:49:04;;;;;;;30.20;6.00;;;;;;;-3.27;100.00;98823.71;103823;1334;22550;-32
2022/11/19 00:51:29;;;;;;;15.70;8.10;;;;;;;-3.25;100.00;98823.38;103429;1341;22518;-32
2022/11/19 00:53:55;;;;;;;12.70;7.60;;;;;;;-3.30;100.00;98826.34;103313;1328;22510;-35
2022/11/19 00:56:22;;;;;;;11.00;5.90;;;;;;;-3.27;100.00;98833.13;104004;1340;22137;-36
2022/11/19 00:58:48;;;;;;;12.80;6.30;;;;;;;-3.22;100.00;98834.30;103739;1336;22195;-32
2022/11/19 01:01:14;;;;;;;22.60;7.80;;;;;;;-3.21;100.00;98831.61;104010;1334;22568;-35
2022/11/19 01:03:40;;;;;;;21.40;8.40;;;;;;;-3.25;100.00;98835.13;103797;1335;22583;-33
2022/11/19 01:06:06;;;;;;;23.10;9.40;;;;;;;-3.27;100.00;98834.19;103974;1341;22202;-36
2022/11/19 01:08:32;;;;;;;19.40;8.00;;;;;;;-3.29;100.00;98839.09;104034;1339;22546;-36
2022/11/19 01:11:05;;;;;;;14.30;7.10;;;;;;;-3.33;100.00;98839.73;103982;1334;22613;-32
2022/11/19 01:16:00;;;;;;;15.60;8.70;;;;;;;-3.38;100.00;98835.58;103839;1341;22511;-36
2022/11/19 01:18:26;;;;;;;9.60;5.20;;;;;;;-3.38;100.00;98835.09;103970;1336;22442;-36
2022/11/19 01:20:52;;;;;;;14.60;8.10;;;;;;;-3.37;100.00;98834.81;103861;1341;22525;-32
2022/11/19 01:23:17;;;;;;;12.50;6.60;;;;;;;-3.36;100.00;98841.55;103636;1341;22042;-36
2022/11/19 01:25:43;;;;;;;15.80;9.70;;;;;;;-3.34;100.00;98841.56;103987;1333;22518;-32
2022/11/19 01:28:08;;;;;;;11.30;6.90;;;;;;;-3.34;100.00;98840.54;103980;1339;22438;-33
2022/11/19 01:30:34;;;;;;;13.90;7.30;;;;;;;-3.34;100.00;98839.10;103962;1341;22192;-33
2022/11/19 01:32:59;;;;;;;14.20;6.30;;;;;;;-3.40;100.00;98835.77;103982;1332;22526;-32
2022/11/19 01:35:25;;;;;;;15.40;8.10;;;;;;;-3.46;100.00;98834.52;103938;1334;22311;-32
2022/11/19 01:37:51;;;;;;;13.70;8.90;;;;;;;-3.52;100.00;98836.51;103929;1341;22192;-33
2022/11/19 01:40:17;;;;;;;9.80;6.50;;;;;;;-3.47;100.00;98837.77;103980;1341;22362;-32
2022/11/19 01:45:33;;;;;;;10.60;5.70;;;;;;;-3.55;100.00;98838.19;103978;1341;22043;-36
2022/11/19 01:48:01;;;;;;;4.50;2.80;;;;;;;-3.58;100.00;98839.14;103986;1341;22556;-32
2022/11/19 01:50:27;;;;;;;10.50;5.30;;;;;;;-3.61;100.00;98833.00;103992;1336;22266;-36
2022/11/19 01:52:53;;;;;;;14.00;7.80;;;;;;;-3.63;100.00;98831.27;102781;1341;22539;-36
2022/11/19 01:55:19;;;;;;;10.10;5.20;;;;;;;-3.64;100.00;98832.36;103999;1341;22515;-32
2022/11/19 01:57:44;;;;;;;9.90;5.40;;;;;;;-3.66;100.00;98836.80;104010;1340;22533;-35
2022/11/19 02:00:11;;;;;;;12.10;5.50;;;;;;;-3.65;100.00;98840.17;103971;1341;22504;-36
2022/11/19 02:02:37;;;;;;;9.60;6.00;;;;;;;-3.65;100.00;98840.52;103989;1341;22327;-36
2022/11/19 02:05:03;;;;;;;12.20;7.90;;;;;;;-3.67;100.00;98845.59;103979;1341;22516;-36
2022/11/19 02:07:31;;;;;;;11.00;6.60;;;;;;;-3.65;100.00;98841.78;104020;1333;22448;-32
2022/11/19 02:09:56;;;;;;;15.10;8.50;;;;;;;-3.67;100.00;98834.61;103981;1341;22371;-36
2022/11/19 02:12:31;;;;;;;14.40;6.00;;;;;;;-3.69;100.00;98835.30;103995;1337;22333;-36
2022/11/19 02:15:04;;;;;;;8.20;5.60;;;;;;;-3.71;100.00;98841.39;103982;1341;22377;-36
2022/11/19 02:17:36;;;;;;;9.50;4.80;;;;;;;-3.78;100.00;98842.44;103784;1341;22211;-33
2022/11/19 02:20:25;;;;;;;10.20;4.90;;;;;;;-3.77;100.00;98847.35;103713;1341;22409;-32
2022/11/19 02:22:54;;;;;;;8.20;5.20;;;;;;;-3.73;100.00;98848.52;103975;1341;22232;-36
2022/11/19 02:25:44;;;;;;;10.00;6.10;;;;;;;-3.66;100.00;98853.17;103803;1332;22181;-36
2022/11/19 02:28:17;;;;;;;9.50;6.50;;;;;;;-3.66;100.00;98852.86;104012;1337;22480;-36
2022/11/19 02:30:45;;;;;;;6.00;4.50;;;;;;;-3.63;100.00;98851.73;103986;1331;22826;-32
2022/11/19 02:33:16;;;;;;;9.00;5.70;;;;;;;-3.65;100.00;98851.02;104018;1336;22344;-36
2022/11/19 02:35:49;;;;;;;4.90;2.80;;;;;;;-3.70;100.00;98853.69;103805;1339;22038;-36
2022/11/19 02:38:21;;;;;;;11.70;6.10;;;;;;;-3.67;100.00;98856.83;103873;1340;22533;-33
2022/11/19 02:40:51;;;;;;;13.70;7.10;;;;;;;-3.69;100.00;98858.70;103822;1341;22637;-36
2022/11/19 02:43:21;;;;;;;10.00;4.70;;;;;;;-3.68;100.00;98858.83;103568;1336;22533;-35
2022/11/19 02:45:49;;;;;;;16.60;7.40;;;;;;;-3.61;100.00;98860.70;103964;1341;22541;-32
2022/11/19 02:48:18;;;;;;;15.00;7.20;;;;;;;-3.58;100.00;98863.06;103972;1340;22386;-36
2022/11/19 02:50:47;;;;;;;11.40;6.00;;;;;;;-3.60;100.00;98863.81;103974;1341;22239;-36
2022/11/19 02:53:13;;;;;;;10.20;5.60;;;;;;;-3.63;100.00;98865.55;103871;1334;22171;-36
2022/11/19 02:55:39;;;;;;;12.60;6.60;;;;;;;-3.64;100.00;98863.18;103970;1341;22058;-36
2022/11/19 02:58:07;;;;;;;10.50;6.70;;;;;;;-3.71;100.00;98867.41;103774;1341;22461;-35
2022/11/19 03:05:44;;;;;;;8.90;5.20;;;;;;;-3.79;100.00;98867.15;103812;1341;22249;-36
2022/11/19 03:08:10;;;;;;;7.20;4.20;;;;;;;-3.77;99.94;98865.77;103839;1340;22501;-33
2022/11/19 03:10:44;;;;;;;8.10;4.60;;;;;;;-3.69;100.00;98868.70;103753;1341;22614;-36
2022/11/19 03:18:15;;;;;;;8.80;5.10;;;;;;;-3.77;99.53;98885.40;103979;1341;22055;-32
2022/11/19 03:20:45;;;;;;;6.70;4.80;;;;;;;-3.83;99.26;98893.89;103941;1341;22479;-36
2022/11/19 03:23:18;;;;;;;8.90;4.40;;;;;;;-3.88;99.31;98903.02;104023;1335;22229;-35
2022/11/19 03:25:45;;;;;;;;;;;;;;;-3.92;99.28;98908.27;103986;1344;22184;-36
2022/11/19 03:28:14;;;;;;;6.20;4.70;;;;;;;-3.94;98.34;98912.73;103937;1343;22095;-36
2022/11/19 03:30:40;;;;;;;7.90;4.70;;;;;;;-3.93;98.09;98916.90;103535;1336;22749;-36
2022/11/19 03:33:07;;;;;;;8.00;4.50;;;;;;;-4.02;97.02;98922.23;103924;1334;22520;-32
2022/11/19 03:35:37;;;;;;;6.10;4.20;;;;;;;-4.03;97.06;98919.73;103548;1341;22516;-36
2022/11/19 03:38:04;;;;;;;8.10;4.10;;;;;;;-4.05;96.99;98920.36;103725;1339;413216;-32
2022/11/19 03:40:29;;;;;;;5.20;3.30;;;;;;;-4.11;96.35;98922.42;103927;1342;22221;-32
2022/11/19 03:42:55;;;;;;;7.10;3.90;;;;;;;-4.14;96.65;98918.33;103630;1343;22537;-36
2022/11/19 03:45:24;;;;;;;5.30;3.00;;;;;;;-4.19;97.02;98921.48;104001;1335;22432;-36
2022/11/19 03:47:50;;;;;;;6.80;3.80;;;;;;;-4.28;97.60;98923.55;103967;1339;22530;-32
2022/11/19 03:50:17;;;;;;;5.80;3.50;;;;;;;-4.33;98.74;98926.14;103998;1344;22360;-35
2022/11/19 03:52:43;;;;;;;3.20;2.20;;;;;;;-4.37;99.27;98929.99;104002;1347;22195;-32
2022/11/19 03:55:09;;;;;;;7.70;3.30;;;;;;;-4.45;99.71;98930.00;103976;1340;22153;-32
2022/11/19 03:57:35;;;;;;;4.20;2.60;;;;;;;-4.53;99.71;98938.10;103972;1323;22510;-36
2022/11/19 04:00:02;;;;;;;4.20;2.70;;;;;;;-4.57;100.00;98946.27;104000;1333;22187;-35
2022/11/19 04:02:28;;;;;;;6.10;4.10;;;;;;;-4.61;100.00;98951.29;103953;1343;22136;-32
2022/11/19 04:04:53;;;;;;;5.60;3.80;;;;;;;-4.61;100.00;98953.60;103946;1342;22527;-36
2022/11/19 04:07:20;;;;;;;4.40;3.00;;;;;;;-4.60;100.00;98954.54;104046;1340;22466;-33
2022/11/19 04:09:46;;;;;;;6.30;3.70;;;;;;;-4.63;100.00;98955.63;103956;1335;22512;-35
2022/11/19 04:12:15;;;;;;;7.90;4.40;;;;;;;-4.71;100.00;98954.09;103891;1339;22291;-35
2022/11/19 04:14:40;;;;;;;16.80;4.50;;;;;;;-4.79;100.00;98950.17;103472;1347;22341;-35
2022/11/19 04:17:06;;;;;;;8.40;5.30;;;;;;;-4.88;100.00;98949.77;103957;1337;22336;-32
2022/11/19 04:19:32;;;;;;;7.30;4.40;;;;;;;-4.95;100.00;98948.85;103989;1335;22537;-36
2022/11/19 04:21:57;;;;;;;6.00;3.90;;;;;;;-4.99;100.00;98950.73;103913;1339;22534;-36
2022/11/19 04:24:23;;;;;;;5.30;3.50;;;;;;;-5.02;100.00;98948.82;102908;1344;22365;-35
2022/11/19 04:26:49;;;;;;;3.30;2.30;;;;;;;-5.03;100.00;98948.59;103906;1341;22131;-35
2022/11/19 04:29:14;;;;;;;4.80;3.20;;;;;;;-5.02;100.00;98949.48;103968;1346;22193;-32
2022/11/19 04:31:40;;;;;;;6.10;3.20;;;;;;;-5.00;100.00;98949.77;104011;1342;22507;-35
2022/11/19 04:34:06;;;;;;;4.20;2.30;;;;;;;-5.03;100.00;98951.34;103582;1346;24378;-32
2022/11/19 04:36:32;;;;;;;6.10;3.10;;;;;;;-5.00;100.00;98955.86;103419;1335;22163;-32
2022/11/19 04:38:58;;;;;;;4.20;2.10;;;;;;;-5.02;100.00;98959.48;103998;1336;22155;-32
2022/11/19 04:41:23;;;;;;;4.50;2.90;;;;;;;-5.07;100.00;98959.85;103985;1345;22222;-32
2022/11/19 04:43:50;;;;;;;9.40;4.60;;;;;;;-5.18;100.00;98959.77;103986;1341;22232;-36
2022/11/19 04:46:15;;;;;;;5.50;2.20;;;;;;;-5.27;100.00;98962.13;103881;1341;22224;-32
2022/11/19 04:48:41;;;;;;;3.10;2.30;;;;;;;-5.37;100.00;98961.45;103650;1342;22238;-35
2022/11/19 04:51:06;;;;;;;5.60;3.90;;;;;;;-5.49;100.00;98964.38;103837;1332;22503;-36
2022/11/19 04:53:32;;;;;;;3.60;2.40;;;;;;;-5.61;100.00;98967.95;103972;1342;22545;-35
2022/11/19 04:55:57;;;;;;;;;;;;;;;-5.67;100.00;98967.45;104006;1339;22146;-32
2022/11/19 04:58:24;;;;;;;14.00;5.30;;;;;;;-5.71;100.00;98972.63;103852;1322;23016;-32
2022/11/19 05:00:49;;;;;;;8.10;3.70;;;;;;;-5.75;100.00;98965.73;103918;1341;22536;-35
2022/11/19 05:03:15;;;;;;;6.00;3.70;;;;;;;-5.83;100.00;98971.55;103652;1346;22548;-31
2022/11/19 05:05:41;;;;;;;11.30;4.40;;;;;;;-5.89;100.00;98972.67;103504;1340;22480;-35
2022/11/19 05:08:06;;;;;;;9.10;4.90;;;;;;;-5.94;100.00;98977.35;103744;1345;22435;-35
2022/11/19 05:10:32;;;;;;;10.50;5.50;;;;;;;-5.97;100.00;98983.52;103991;1341;22252;-31
2022/11/19 05:12:58;;;;;;;9.90;3.40;;;;;;;-6.04;100.00;98986.77;103963;1341;22195;-35
2022/11/19 05:15:23;;;;;;;9.40;5.40;;;;;;;-6.14;100.00;98986.38;103606;1344;24296;-32
2022/11/19 05:17:49;;;;;;;12.80;4.60;;;;;;;-6.16;100.00;98992.10;103957;1340;22171;-36
2022/11/19 05:20:15;;;;;;;12.40;6.00;;;;;;;-6.17;100.00;98998.75;103958;1342;22607;-32
2022/11/19 05:22:40;;;;;;;11.50;5.30;;;;;;;-6.15;100.00;98999.50;103727;1342;22413;-32
2022/11/19 05:25:07;;;;;;;9.00;5.40;;;;;;;-6.13;100.00;99003.36;103950;1341;22383;-31
2022/11/19 05:27:33;;;;;;;8.10;4.40;;;;;;;-6.15;100.00;99006.31;103969;1342;22456;-35
2022/11/19 05:29:58;;;;;;;12.40;6.40;;;;;;;-6.18;100.00;99008.77;103347;1346;22510;-35
2022/11/19 05:32:24;;;;;;;16.70;7.70;;;;;;;-6.23;100.00;99007.02;103875;1321;22298;-32
2022/11/19 05:34:50;;;;;;;17.90;8.50;;;;;;;-6.26;100.00;99012.65;103813;1342;22184;-32
2022/11/19 05:37:15;;;;;;;22.40;11.20;;;;;;;-6.34;100.00;99012.23;103981;1341;22591;-36
2022/11/19 05:39:41;;;;;;;15.50;6.90;;;;;;;-6.43;100.00;99019.65;103902;1347;22519;-37
2022/11/19 05:42:06;;;;;;;9.20;4.60;;;;;;;-6.50;100.00;99025.32;103985;1339;22076;-35
2022/11/19 05:44:32;;;;;;;12.00;5.40;;;;;;;-6.53;100.00;99031.42;103997;1341;22206;-35
2022/11/19 05:46:58;;;;;;;14.20;5.60;;;;;;;-6.50;100.00;99035.61;103966;1341;22141;-31
2022/11/19 05:49:24;;;;;;;9.60;4.70;;;;;;;-6.49;100.00;99036.23;104048;1340;22428;-35
2022/11/19 05:51:50;;;;;;;12.20;5.50;;;;;;;-6.50;100.00;99039.44;103974;1341;22381;-35
2022/11/19 05:54:15;;;;;;;9.30;4.90;;;;;;;-6.51;100.00;99045.24;103717;1347;22526;-32
2022/11/19 05:56:41;;;;;;;19.50;8.60;;;;;;;-6.53;100.00;99044.83;103753;1341;22218;-35
2022/11/19 05:59:07;;;;;;;21.40;7.70;;;;;;;-6.54;100.00;99043.17;103986;1342;22520;-35
2022/11/19 06:01:32;;;;;;;13.80;6.30;;;;;;;-6.58;100.00;99045.86;103814;1340;24297;-31
2022/11/19 06:03:58;;;;;;;8.20;5.00;;;;;;;-6.61;100.00;99047.59;103752;1345;22214;-36
2022/11/19 06:06:24;;;;;;;17.10;5.70;;;;;;;-6.58;100.00;99050.53;103911;1335;22558;-33
2022/11/19 06:08:50;;;;;;;17.70;7.70;;;;;;;-6.58;100.00;99054.53;103774;1337;22540;-35
2022/11/19 06:13:45;;;;;;;18.80;8.40;;;;;;;-6.59;100.00;99062.28;103983;1344;22533;-32
2022/11/19 06:16:10;;;;;;;20.00;8.20;;;;;;;-6.62;100.00;99070.62;103923;1339;22586;-32
2022/11/19 06:18:36;;;;;;;17.30;5.10;;;;;;;-6.68;100.00;99079.17;103698;1341;22215;-35
2022/11/19 06:21:02;;;;;;;5.20;3.10;;;;;;;-6.67;100.00;99081.44;103932;1334;22537;-32
2022/11/19 06:23:28;;;;;;;7.40;4.00;;;;;;;-6.61;100.00;99090.08;103892;1327;22194;-36
2022/11/19 06:25:53;;;;;;;9.30;3.50;;;;;;;-6.56;100.00;99092.41;103303;1341;22571;-32
2022/11/19 06:28:19;;;;;;;8.10;3.90;;;;;;;-6.54;100.00;99093.16;103924;1341;22525;-35
2022/11/19 06:30:44;;;;;;;16.50;7.80;;;;;;;-6.61;100.00;99090.05;103929;1335;22481;-32
2022/11/19 06:33:10;;;;;;;7.50;4.30;;;;;;;-6.70;100.00;99092.23;103958;1341;22396;-35
2022/11/19 06:35:37;;;;;;;7.20;3.60;;;;;;;-6.73;100.00;99098.52;103628;1341;22367;-35
2022/11/19 06:38:03;;;;;;;11.60;6.40;;;;;;;-6.77;100.00;99102.93;103940;1340;22506;-35
2022/11/19 06:40:28;;;;;;;20.80;9.40;;;;;;;-6.85;100.00;99109.13;103858;1341;22048;-35
2022/11/19 06:42:54;;;;;;;7.90;4.30;;;;;;;-6.86;100.00;99115.31;103814;1341;22968;-35
2022/11/19 06:45:19;;;;;;;15.30;7.00;;;;;;;-6.82;100.00;99120.11;103843;1341;22504;-32
2022/11/19 06:47:46;;;;;;;12.50;5.50;;;;;;;-6.79;100.00;99120.84;103952;1341;22298;-32
2022/11/19 06:50:11;;;;;;;9.10;5.50;;;;;;;-6.80;100.00;99117.89;103922;1341;22522;-31
2022/11/19 06:52:37;;;;;;;13.40;7.50;;;;;;;-6.82;100.00;99114.72;103725;1341;22222;-36
2022/11/19 06:55:03;;;;;;;15.80;8.70;;;;;;;-6.81;100.00;99116.91;103974;1341;22101;-36
2022/11/19 06:57:28;;;;;;;14.40;4.80;;;;;;;-6.76;100.00;99119.23;103931;1336;22044;-32
2022/11/19 06:59:54;;;;;;;12.50;6.10;;;;;;;-6.68;100.00;99123.08;103380;1340;22521;-32
2022/11/19 07:02:19;;;;;;;12.50;7.00;;;;;;;-6.56;100.00;99124.75;102803;1341;22287;-31
2022/11/19 07:04:46;;;;;;;10.60;5.00;;;;;;;-6.39;100.00;99127.55;103624;1341;23961;-36
2022/11/19 07:07:12;;;;;;;11.80;6.70;;;;;;;-6.23;100.00;99127.55;103768;1334;22532;-36
2022/11/19 07:09:38;;;;;;;14.40;7.90;;;;;;;-6.17;100.00;99127.86;103798;1339;22492;-32
2022/11/19 07:12:05;;;;;;;22.20;10.50;;;;;;;-6.11;100.00;99127.67;103946;1340;22291;-32
2022/11/19 07:14:31;;;;;;;21.90;8.00;;;;;;;-6.06;100.00;99126.32;103995;1341;22494;-32
2022/11/19 07:16:57;;;;;;;30.10;13.70;;;;;;;-5.98;100.00;99128.92;103974;1340;22627;-36
2022/11/19 07:19:22;;;;;;;21.80;8.50;;;;;;;-5.94;100.00;99126.80;103743;1341;22541;-32
2022/11/19 07:21:48;;;;;;;35.40;17.10;;;;;;;-5.87;100.00;99134.16;103655;1341;22119;-32
2022/11/19 07:24:15;;;;;;;50.50;18.10;;;;;;;-5.75;100.00;99139.80;103966;1333;22503;-35
2022/11/19 07:26:40;;;;;;;39.80;15.10;;;;;;;-5.68;100.00;99139.89;104004;1333;22518;-36
2022/11/19 07:29:06;;;;;;;34.90;12.80;;;;;;;-5.45;100.00;99134.52;103952;1339;22532;-36
2022/11/19 07:31:32;;;;;;;28.60;13.30;;;;;;;-5.14;100.00;99128.41;102927;1341;22584;-35
2022/11/19 07:33:58;;;;;;;23.30;11.00;;;;;;;-4.96;100.00;99123.88;102403;1339;22710;-36
2022/11/19 07:36:24;;;;;;;30.00;12.40;;;;;;;-4.90;100.00;99118.92;103092;1341;22292;-32
2022/11/19 07:38:51;;;;;;;30.10;11.80;;;;;;;-4.91;100.00;99119.50;103300;1334;24300;-31
2022/11/19 07:43:46;;;;;;;23.90;12.10;;;;;;;-5.15;100.00;99118.52;103981;1341;22171;-32
2022/11/19 07:46:12;;;;;;;25.80;13.40;;;;;;;-5.29;100.00;99121.27;103985;1341;22095;-32
2022/11/19 07:48:38;;;;;;;19.10;10.10;;;;;;;-5.30;100.00;99126.55;103822;1334;22466;-31
2022/11/19 07:51:03;;;;;;;48.40;18.80;;;;;;;-5.20;100.00;99126.21;103419;1341;22516;-32
2022/11/19 07:53:29;;;;;;;40.70;16.20;;;;;;;-5.08;100.00;99124.52;103984;1334;22503;-35
2022/11/19 07:55:58;;;;;;;47.10;13.20;;;;;;;-4.92;100.00;99121.86;103949;1339;22581;-31
2022/11/19 07:58:24;;;;;;;20.90;11.10;;;;;;;-4.78;100.00;99125.36;103430;1333;22599;-31
2022/11/19 08:00:50;;;;;;;24.60;10.00;;;;;;;-4.72;100.00;99120.96;103584;1341;22548;-35
2022/11/19 08:03:15;;;;;;;24.30;12.80;;;;;;;-4.68;100.00;99123.84;103768;1336;22485;-31
2022/11/19 08:05:41;;;;;;;20.70;11.00;;;;;;;-4.53;100.00;99118.77;103061;1341;22531;-32
2022/11/19 08:08:07;;;;;;;40.80;17.30;;;;;;;-4.48;100.00;99117.20;103903;1340;22478;-35
2022/11/19 08:10:33;;;;;;;23.30;10.00;;;;;;;-4.45;100.00;99115.91;103936;1336;22098;-34
2022/11/19 08:15:29;;;;;;;22.70;11.00;;;;;;;-4.10;100.00;99120.13;103963;1341;22205;-32
2022/11/19 08:20:24;;;;;;;24.80;10.90;;;;;;;-3.33;100.00;99115.62;103902;1334;22550;-32
2022/11/19 08:22:50;;;;;;;27.10;14.40;;;;;;;-2.85;100.00;99114.81;103933;1341;22161;-36
2022/11/19 08:25:16;;;;;;;21.70;9.00;;;;;;;-2.56;100.00;99113.20;103741;1326;22529;-36
2022/11/19 08:27:42;;;;;;;27.50;12.80;;;;;;;-2.33;100.00;99116.66;103257;1345;22539;-32
2022/11/19 08:30:08;;;;;;;19.50;10.40;;;;;;;-2.10;100.00;99124.67;103790;1333;22288;-36
2022/11/19 08:32:35;;;;;;;19.70;7.90;;;;;;;-1.86;100.00;99124.00;103750;1322;22518;-36
2022/11/19 08:35:01;;;;;;;25.50;11.80;;;;;;;-1.75;100.00;99120.04;103658;1341;22010;-33
2022/11/19 08:37:26;;;;;;;21.30;9.80;;;;;;;-1.34;100.00;99114.41;103937;1341;22324;-32
2022/11/19 08:39:52;;;;;;;25.20;11.00;;;;;;;-0.87;100.00;99111.34;103767;1326;22538;-33
2022/11/19 08:44:47;;;;;;;10.40;7.80;;;;;;;-0.26;100.00;99107.41;103926;1341;22098;-37
2022/11/19 08:47:13;;;;;;;16.90;9.40;;;;;;;-0.29;100.00;99103.41;103886;1326;22542;-33
2022/11/19 08:49:38;;;;;;;18.00;9.80;;;;;;;-0.14;100.00;99106.35;103959;1341;22568;-37
2022/11/19 08:52:04;;;;;;;15.80;9.70;;;;;;;-0.09;100.00;99103.80;103909;1336;22514;-33
2022/11/19 08:54:29;;;;;;;12.60;6.90;;;;;;;-0.14;100.00;99103.04;103991;1333;22225;-34
2022/11/19 08:56:55;;;;;;;16.00;8.80;;;;;;;-0.52;98.98;99104.38;103819;1333;22538;-37
2022/11/19 08:59:20;;;;;;;21.50;11.50;;;;;;;-0.23;100.00;99106.43;103909;1332;22511;-34
2022/11/19 09:01:47;;;;;;;17.30;11.30;;;;;;;-0.25;99.97;99112.30;103892;1340;24412;-33
2022/11/19 09:04:13;;;;;;;18.50;11.20;;;;;;;-0.32;99.65;99118.46;103482;1336;22768;-37
2022/11/19 09:06:39;;;;;;;16.30;9.20;;;;;;;0.05;98.29;99117.52;104001;1341;22417;-36
2022/11/19 09:09:05;;;;;;;16.70;9.00;;;;;;;-0.05;98.28;99119.27;103955;1341;22252;-37
2022/11/19 09:11:31;;;;;;;18.70;10.40;;;;;;;0.11;98.23;99118.92;103831;1330;22546;-37
2022/11/19 09:13:57;;;;;;;23.10;12.20;;;;;;;0.37;96.63;99121.52;103921;1341;22520;-34
2022/11/19 09:16:22;;;;;;;25.80;14.00;;;;;;;0.13;96.05;99127.40;103798;1335;22042;-37
2022/11/19 09:18:48;;;;;;;21.70;12.10;;;;;;;0.11;93.40;99125.98;103649;1341;22451;-37
2022/11/19 09:21:14;;;;;;;17.10;11.40;;;;;;;-0.35;91.51;99127.95;103797;1333;22164;-34
2022/11/19 09:23:41;;;;;;;15.80;9.20;;;;;;;-0.55;92.81;99133.73;103850;1341;22582;-32
2022/11/19 09:26:11;;;;;;;21.20;12.20;;;;;;;-0.75;92.89;99138.61;103845;1341;22373;-33
2022/11/19 09:28:37;;;;;;;21.40;13.40;;;;;;;-0.86;93.57;99138.64;103696;1341;22240;-33
2022/11/19 09:31:05;;;;;;;20.90;12.90;;;;;;;-0.85;93.89;99137.86;103911;1326;22507;-33
2022/11/19 09:33:32;;;;;;;25.40;13.30;;;;;;;-1.04;91.78;99141.97;103945;1336;22272;-33
2022/11/19 09:35:58;;;;;;;11.30;7.00;;;;;;;-1.41;92.76;99145.20;103868;1341;22183;-33
2022/11/19 09:38:23;;;;;;;17.30;10.50;;;;;;;-1.39;93.29;99143.05;103774;1341;22383;-39
2022/11/19 09:40:51;;;;;;;20.60;11.10;;;;;;;-1.43;93.19;99142.89;103869;1334;22146;-37
2022/11/19 09:43:20;;;;;;;17.80;11.20;;;;;;;-1.23;94.00;99137.88;103991;1341;22284;-37
2022/11/19 09:45:49;;;;;;;26.50;10.20;;;;;;;-0.90;93.32;99131.61;103956;1332;22350;-36
2022/11/19 09:48:18;;;;;;;22.30;13.40;;;;;;;-0.64;92.89;99128.31;103907;1341;22579;-36
2022/11/19 09:50:47;;;;;;;19.30;11.00;;;;;;;-0.31;92.01;99130.23;103934;1341;22560;-37
2022/11/19 09:53:16;;;;;;;20.70;12.10;;;;;;;-0.16;87.65;99129.80;103965;1341;22246;-33
2022/11/19 09:55:44;;;;;;;12.50;7.50;;;;;;;-0.56;81.96;99135.59;103824;1341;22358;-37
2022/11/19 09:58:15;;;;;;;10.80;7.50;;;;;;;-0.83;80.75;99140.30;102777;1335;22524;-43
2022/11/19 10:00:42;;;;;;;11.60;7.40;;;;;;;-0.66;81.97;99136.71;104000;1341;22551;-37
2022/11/19 10:03:13;;;;;;;8.40;5.40;;;;;;;-0.20;82.92;99133.81;103770;1340;22571;-34
2022/11/19 10:05:44;;;;;;;9.90;6.50;;;;;;;0.44;84.03;99126.70;103918;1339;22521;-34
2022/11/19 10:08:13;;;;;;;15.40;7.50;;;;;;;-0.05;81.66;99134.98;103933;1341;22521;-37
2022/11/19 10:10:41;;;;;;;10.40;7.10;;;;;;;-0.44;80.54;99135.77;103859;1340;22490;-33
2022/11/19 10:13:15;;;;;;;10.30;7.30;;;;;;;-0.75;79.66;99134.19;103835;1341;22598;-37
2022/11/19 10:15:45;;;;;;;;;;;;;;;-1.01;78.77;99142.21;103966;1341;23084;-33
2022/11/19 10:18:17;;;;;;;9.00;6.80;;;;;;;-1.10;80.58;99142.95;103656;1341;22224;-37
2022/11/19 10:20:48;;;;;;;18.90;11.10;;;;;;;-1.24;82.76;99140.20;103902;1326;22185;-37
2022/11/19 10:23:18;;;;;;;11.80;6.80;;;;;;;-1.37;82.48;99137.64;103558;1341;22527;-33
2022/11/19 10:25:46;;;;;;;11.90;8.00;;;;;;;-1.46;83.30;99133.25;103883;1341;22513;-33
2022/11/19 10:28:13;;;;;;;12.40;7.80;;;;;;;-1.49;83.80;99132.89;103934;1341;22195;-37
2022/11/19 10:30:39;;;;;;;19.70;10.00;;;;;;;-1.55;84.32;99131.78;103862;1341;22513;-33
2022/11/19 10:33:11;;;;;;;12.50;6.50;;;;;;;-1.58;84.83;99133.73;104010;1334;23295;-34
2022/11/19 10:35:39;;;;;;;12.90;7.60;;;;;;;-1.76;83.04;99130.83;103970;1337;22146;-37
2022/11/19 10:38:11;;;;;;;31.10;16.00;;;;;;;-1.92;82.44;99130.52;104010;1336;22311;-35
2022/11/19 10:40:40;;;;;;;17.20;10.80;;;;;;;-1.97;83.72;99127.30;103932;1341;22209;-32
2022/11/19 10:43:09;;;;;;;15.90;8.80;;;;;;;-2.23;83.08;99119.52;103900;1341;22488;-36
2022/11/19 10:45:35;;;;;;;23.90;14.40;;;;;;;-2.27;82.68;99121.10;103377;1340;22234;-36
2022/11/19 10:48:08;;;;;;;32.10;16.60;;;;;;;-2.17;82.60;99121.73;103525;1341;25572;-36
2022/11/19 10:50:33;;;;;;;30.60;15.60;;;;;;;-2.22;83.31;99122.95;102900;1341;22352;-36
2022/11/19 10:53:05;;;;;;;32.80;18.80;;;;;;;-1.44;86.50;99115.89;103939;1341;22553;-37
2022/11/19 10:55:34;;;;;;;21.50;11.40;;;;;;;-0.35;86.01;99111.52;103904;1341;22605;-37
2022/11/19 10:58:06;;;;;;;22.40;11.80;;;;;;;0.49;84.84;99109.91;102225;1337;24414;-33
2022/11/19 11:00:32;;;;;;;23.20;9.70;;;;;;;1.29;85.09;99104.23;103242;1341;23329;-33
2022/11/19 11:03:01;;;;;;;23.00;11.00;;;;;;;2.04;84.35;99107.45;103659;1326;22518;-37
2022/11/19 11:05:28;;;;;;;19.60;8.60;;;;;;;2.44;82.54;99103.16;103739;1340;22053;-37
2022/11/19 11:07:55;;;;;;;36.40;16.40;;;;;;;2.76;81.17;99102.30;103904;1334;22540;-37
2022/11/19 11:10:27;;;;;;;34.10;15.30;;;;;;;3.02;78.61;99093.98;103517;1341;22499;-34
2022/11/19 11:15:24;;;;;;;5.90;4.10;;;;;;;3.44;65.79;99096.26;103909;1339;22495;-37
2022/11/19 11:17:57;;;;;;;6.90;4.90;;;;;;;2.54;57.71;99103.00;103847;1336;22543;-34
2022/11/19 11:20:25;;;;;;;3.40;2.10;;;;;;;2.41;60.21;99104.71;103912;1341;24323;-33
2022/11/19 11:23:02;;;;;;;8.90;5.70;;;;;;;2.58;55.73;99106.55;103940;1341;22531;-37
2022/11/19 11:25:28;;;;;;;6.70;4.90;;;;;;;2.24;53.20;99104.08;103913;1341;22185;-33
2022/11/19 11:28:00;;;;;;;6.40;4.80;;;;;;;2.24;53.97;99105.64;103046;1340;22500;-37
2022/11/19 11:30:26;;;;;;;9.20;6.80;;;;;;;2.34;54.62;99104.33;103851;1340;22331;-34
2022/11/19 11:32:52;;;;;;;8.60;4.40;;;;;;;2.46;51.86;99105.09;104219;1320;22518;-37
2022/11/19 11:35:31;;;;;;;6.70;5.00;;;;;;;2.35;52.41;99104.95;104144;1335;22526;-34
2022/11/19 11:37:57;;;;;;;17.00;8.90;;;;;;;2.07;54.43;99101.48;103636;1330;410078;-34
2022/11/19 11:40:23;;;;;;;11.00;8.10;;;;;;;2.27;55.05;99099.20;104107;1332;22318;-34
2022/11/19 11:42:49;;;;;;;7.70;5.20;;;;;;;2.37;55.81;99095.23;103649;1335;22194;-34
2022/11/19 11:45:20;;;;;;;8.80;6.00;;;;;;;2.51;55.24;99093.60;104162;1334;22507;-36